createdAt,value
2022-12-14T00:01:53.847Z,43.59
2022-12-14T00:04:21.542Z,43.12
2022-12-14T00:06:50.725Z,43.39
2022-12-14T00:09:18.504Z,43.19
2022-12-14T00:11:46.304Z,43.34
2022-12-14T00:14:13.995Z,43.16
2022-12-14T00:16:41.991Z,43.48
2022-12-14T00:19:11.981Z,43.26
2022-12-14T00:21:39.773Z,43.21
2022-12-14T00:24:08.976Z,43.43
2022-12-14T00:26:36.711Z,43.24
2022-12-14T00:29:04.464Z,43.30
2022-12-14T00:31:32.670Z,43.36
2022-12-14T00:34:01.297Z,43.31
2022-12-14T00:36:31.591Z,43.50
2022-12-14T00:39:02.435Z,43.49
2022-12-14T00:41:31.586Z,43.30
2022-12-14T00:43:59.288Z,43.11
2022-12-14T00:46:27.098Z,43.15
2022-12-14T00:48:54.998Z,43.42
2022-12-14T00:51:22.988Z,43.07
2022-12-14T00:53:50.775Z,43.14
2022-12-14T00:56:18.485Z,42.85
2022-12-14T00:58:52.824Z,43.01
2022-12-14T01:01:21.391Z,43.13
2022-12-14T01:03:49.337Z,43.02
2022-12-14T01:06:17.789Z,42.99
2022-12-14T01:08:45.487Z,42.83
2022-12-14T01:11:13.642Z,42.73
2022-12-14T01:13:41.628Z,42.61
2022-12-14T01:16:12.106Z,42.89
2022-12-14T01:18:40.510Z,43.17
2022-12-14T01:21:09.984Z,42.94
2022-12-14T01:23:37.947Z,42.90
2022-12-14T01:26:05.646Z,42.90
2022-12-14T01:28:35.092Z,43.11
2022-12-14T01:31:06.157Z,43.12
2022-12-14T01:33:35.449Z,43.11
2022-12-14T01:36:07.124Z,43.14
2022-12-14T01:38:35.006Z,43.07
2022-12-14T01:41:02.764Z,43.19
2022-12-14T01:43:45.463Z,43.21
2022-12-14T01:46:19.074Z,43.03
2022-12-14T01:48:49.406Z,43.02
2022-12-14T01:51:17.159Z,42.73
2022-12-14T01:53:45.037Z,42.89
2022-12-14T01:56:13.053Z,42.51
2022-12-14T01:58:42.056Z,42.02
2022-12-14T02:01:11.310Z,42.16
2022-12-14T02:03:41.490Z,42.41
2022-12-14T02:06:13.011Z,42.39
2022-12-14T02:08:43.336Z,42.33
2022-12-14T02:11:11.098Z,42.66
2022-12-14T02:13:40.569Z,42.80
2022-12-14T02:16:08.724Z,42.80
2022-12-14T02:18:36.575Z,42.71
2022-12-14T02:21:18.797Z,42.78
2022-12-14T02:23:58.846Z,42.82
2022-12-14T02:26:40.891Z,42.66
2022-12-14T02:29:25.471Z,42.87
2022-12-14T02:31:59.167Z,42.56
2022-12-14T02:34:34.119Z,42.65
2022-12-14T02:37:06.372Z,42.67
2022-12-14T02:39:39.834Z,42.49
2022-12-14T02:42:09.895Z,42.72
2022-12-14T02:44:45.802Z,42.76
2022-12-14T02:47:16.734Z,42.54
2022-12-14T02:49:51.156Z,42.83
2022-12-14T02:52:26.445Z,42.67
2022-12-14T02:54:57.186Z,42.74
2022-12-14T02:57:28.601Z,43.02
2022-12-14T02:59:59.661Z,43.18
2022-12-14T03:02:29.421Z,43.08
2022-12-14T03:04:59.612Z,42.68
2022-12-14T03:07:31.320Z,42.81
2022-12-14T03:10:01.004Z,42.81
2022-12-14T03:12:28.921Z,42.78
2022-12-14T03:15:00.202Z,42.65
2022-12-14T03:17:31.091Z,42.68
2022-12-14T03:20:01.894Z,42.93
2022-12-14T03:22:33.542Z,42.90
2022-12-14T03:25:03.090Z,42.79
2022-12-14T03:27:32.618Z,43.03
2022-12-14T03:30:05.267Z,43.15
2022-12-14T03:32:34.338Z,43.12
2022-12-14T03:35:04.421Z,43.21
2022-12-14T03:37:35.325Z,43.30
2022-12-14T03:40:03.179Z,43.39
2022-12-14T03:42:34.241Z,43.20
2022-12-14T03:45:08.156Z,43.22
2022-12-14T03:47:48.803Z,43.47
2022-12-14T03:50:18.549Z,43.19
2022-12-14T03:52:50.815Z,43.32
2022-12-14T03:55:24.510Z,43.52
2022-12-14T03:58:07.990Z,43.12
2022-12-14T04:00:42.316Z,43.22
2022-12-14T04:03:13.339Z,43.28
2022-12-14T04:05:48.759Z,43.36
2022-12-14T04:08:22.752Z,43.00
2022-12-14T04:11:10.461Z,43.38
2022-12-14T04:14:05.506Z,43.12
2022-12-14T04:16:55.302Z,43.36
2022-12-14T04:19:26.504Z,43.20
2022-12-14T04:21:56.573Z,43.56
2022-12-14T04:24:45.980Z,43.34
2022-12-14T04:27:18.573Z,43.32
2022-12-14T04:30:00.416Z,43.55
2022-12-14T04:32:32.561Z,43.40
2022-12-14T04:35:03.796Z,43.56
2022-12-14T04:37:32.869Z,43.40
2022-12-14T04:40:05.262Z,43.48
2022-12-14T04:42:35.135Z,43.48
2022-12-14T04:45:06.196Z,43.53
2022-12-14T04:47:38.036Z,43.17
2022-12-14T04:50:09.972Z,43.40
2022-12-14T04:52:40.821Z,43.46
2022-12-14T04:55:12.150Z,43.46
2022-12-14T04:57:42.701Z,43.41
2022-12-14T05:00:11.291Z,43.67
2022-12-14T05:03:02.926Z,43.26
2022-12-14T05:05:35.388Z,43.53
2022-12-14T05:08:05.751Z,43.52
2022-12-14T05:10:37.519Z,43.69
2022-12-14T05:13:07.857Z,43.45
2022-12-14T05:15:40.351Z,43.42
2022-12-14T05:18:09.649Z,43.24
2022-12-14T05:20:37.356Z,43.48
2022-12-14T05:23:05.120Z,43.15
2022-12-14T05:25:34.656Z,43.47
2022-12-14T05:28:02.599Z,43.30
2022-12-14T05:30:30.425Z,43.42
2022-12-14T05:32:58.769Z,43.21
2022-12-14T05:35:27.997Z,43.35
2022-12-14T05:37:55.843Z,43.56
2022-12-14T05:40:23.586Z,43.44
2022-12-14T05:42:55.710Z,43.40
2022-12-14T05:45:23.835Z,43.35
2022-12-14T05:47:51.510Z,43.35
2022-12-14T05:50:19.305Z,43.41
2022-12-14T05:52:48.526Z,43.26
2022-12-14T05:55:19.827Z,43.68
2022-12-14T05:57:47.580Z,43.18
2022-12-14T06:00:16.350Z,43.60
2022-12-14T06:02:44.072Z,43.49
2022-12-14T06:05:11.799Z,43.66
2022-12-14T06:07:39.747Z,43.58
2022-12-14T06:10:09.300Z,43.55
2022-12-14T06:12:37.077Z,43.60
2022-12-14T06:15:05.056Z,43.85
2022-12-14T06:17:34.191Z,43.61
2022-12-14T06:20:01.806Z,43.86
2022-12-14T06:22:29.627Z,43.79
2022-12-14T06:24:57.307Z,43.76
2022-12-14T06:27:26.440Z,43.72
2022-12-14T06:29:54.152Z,43.68
2022-12-14T06:32:21.878Z,43.75
2022-12-14T06:34:49.665Z,43.82
2022-12-14T06:37:17.632Z,43.74
2022-12-14T06:39:46.469Z,43.47
2022-12-14T06:42:20.464Z,43.46
2022-12-14T06:44:49.513Z,43.52
2022-12-14T06:47:17.331Z,43.61
2022-12-14T06:50:10.282Z,43.59
2022-12-14T06:52:39.707Z,43.68
2022-12-14T06:55:08.014Z,43.57
2022-12-14T06:57:35.750Z,43.44
2022-12-14T07:00:05.007Z,43.58
2022-12-14T07:02:32.942Z,43.46
2022-12-14T07:05:00.939Z,43.60
2022-12-14T07:07:28.666Z,43.50
2022-12-14T07:09:56.540Z,43.44
2022-12-14T07:12:25.674Z,43.21
2022-12-14T07:14:53.367Z,43.38
2022-12-14T07:17:22.478Z,43.38
2022-12-14T07:19:50.169Z,43.31
2022-12-14T07:22:18.287Z,43.44
2022-12-14T07:24:46.154Z,43.17
2022-12-14T07:27:13.855Z,43.15
2022-12-14T07:29:41.504Z,43.38
2022-12-14T07:32:09.134Z,43.54
2022-12-14T07:34:38.133Z,43.60
2022-12-14T07:37:05.804Z,43.67
2022-12-14T07:39:33.465Z,43.28
2022-12-14T07:42:13.567Z,43.41
2022-12-14T07:44:48.329Z,43.50
2022-12-14T07:47:16.823Z,43.40
2022-12-14T07:49:45.896Z,43.50
2022-12-14T07:52:15.384Z,43.54
2022-12-14T07:54:43.292Z,43.41
2022-12-14T07:57:11.103Z,43.12
2022-12-14T07:59:38.794Z,43.49
2022-12-14T08:02:07.065Z,43.58
2022-12-14T08:04:35.379Z,43.31
2022-12-14T08:07:04.901Z,43.23
2022-12-14T08:09:32.482Z,43.19
2022-12-14T08:12:00.186Z,43.12
2022-12-14T08:14:27.802Z,42.99
2022-12-14T08:16:55.466Z,43.17
2022-12-14T08:19:23.051Z,43.13
2022-12-14T08:21:50.703Z,43.25
2022-12-14T08:24:19.823Z,43.11
2022-12-14T08:26:49.294Z,43.02
2022-12-14T08:29:17.580Z,42.85
2022-12-14T08:31:45.213Z,42.90
2022-12-14T08:34:12.853Z,42.95
2022-12-14T08:36:40.531Z,42.81
2022-12-14T08:39:09.495Z,42.78
2022-12-14T08:41:38.552Z,43.07
2022-12-14T08:44:06.786Z,43.32
2022-12-14T08:46:35.197Z,43.11
2022-12-14T08:49:03.074Z,43.03
2022-12-14T08:51:30.760Z,42.68
2022-12-14T08:53:58.828Z,42.87
2022-12-14T08:56:27.484Z,43.11
2022-12-14T08:58:56.498Z,42.84
2022-12-14T09:01:32.118Z,42.76
2022-12-14T09:04:03.115Z,43.02
2022-12-14T09:06:31.105Z,42.99
2022-12-14T09:08:58.885Z,42.99
2022-12-14T09:11:26.502Z,42.95
2022-12-14T09:13:55.156Z,43.00
2022-12-14T09:16:26.226Z,42.80
2022-12-14T09:18:55.103Z,42.72
2022-12-14T09:21:22.992Z,42.88
2022-12-14T09:23:57.400Z,42.69
2022-12-14T09:26:26.994Z,42.73
2022-12-14T09:28:55.787Z,42.85
2022-12-14T09:31:25.898Z,42.71
2022-12-14T09:33:54.777Z,42.74
2022-12-14T09:36:23.357Z,42.70
2022-12-14T09:38:52.782Z,42.56
2022-12-14T09:41:25.437Z,42.52
2022-12-14T09:43:55.590Z,42.41
2022-12-14T09:46:29.806Z,42.91
2022-12-14T09:48:58.111Z,43.00
2022-12-14T09:51:32.080Z,42.91
2022-12-14T09:54:03.779Z,42.82
2022-12-14T09:56:32.535Z,43.05
2022-12-14T09:59:01.968Z,42.89
2022-12-14T10:01:55.502Z,42.60
2022-12-14T10:04:47.821Z,42.73
2022-12-14T10:07:20.062Z,43.03
2022-12-14T10:09:50.286Z,42.70
2022-12-14T10:12:26.324Z,42.91
2022-12-14T10:15:07.267Z,42.89
2022-12-14T10:17:43.913Z,42.75
2022-12-14T10:20:17.625Z,42.69
2022-12-14T10:22:47.697Z,43.09
2022-12-14T10:25:17.972Z,42.74
2022-12-14T10:28:09.946Z,42.96
2022-12-14T10:30:36.728Z,42.74
2022-12-14T10:33:25.085Z,42.70
2022-12-14T10:35:53.626Z,42.70
2022-12-14T10:38:26.160Z,42.77
2022-12-14T10:40:55.886Z,42.76
2022-12-14T10:43:38.072Z,42.93
2022-12-14T10:46:14.581Z,42.74
2022-12-14T10:48:49.255Z,42.82
2022-12-14T10:51:20.237Z,42.66
2022-12-14T10:53:50.598Z,42.53
2022-12-14T10:56:20.944Z,42.89
2022-12-14T10:59:04.091Z,42.81
2022-12-14T11:01:31.833Z,43.00
2022-12-14T11:04:00.990Z,42.76
2022-12-14T11:06:28.970Z,43.08
2022-12-14T11:08:57.948Z,42.89
2022-12-14T11:11:26.797Z,42.65
2022-12-14T11:13:55.418Z,42.90
2022-12-14T11:16:33.697Z,42.83
2022-12-14T11:19:06.069Z,43.06
2022-12-14T11:21:35.118Z,42.80
2022-12-14T11:24:03.180Z,42.98
2022-12-14T11:26:33.980Z,42.83
2022-12-14T11:29:02.558Z,43.08
2022-12-14T11:31:33.522Z,43.39
2022-12-14T11:34:03.000Z,43.11
2022-12-14T11:36:34.135Z,43.34
2022-12-14T11:39:02.763Z,43.26
2022-12-14T11:41:35.077Z,43.20
2022-12-14T11:44:06.991Z,43.23
2022-12-14T11:46:45.402Z,43.23
2022-12-14T11:49:24.660Z,43.09
2022-12-14T11:51:59.007Z,43.20
2022-12-14T11:54:26.668Z,43.29
2022-12-14T11:56:58.691Z,43.21
2022-12-14T11:59:28.664Z,43.24
2022-12-14T12:01:56.912Z,43.27
2022-12-14T12:04:24.664Z,43.36
2022-12-14T12:06:54.406Z,43.22
2022-12-14T12:09:27.814Z,43.60
2022-12-14T12:11:55.623Z,43.23
2022-12-14T12:14:30.360Z,43.59
2022-12-14T12:16:58.105Z,43.34
2022-12-14T12:19:27.303Z,43.47
2022-12-14T12:21:55.942Z,43.54
2022-12-14T12:24:26.209Z,43.70
2022-12-14T12:26:57.299Z,43.49
2022-12-14T12:29:28.377Z,43.48
2022-12-14T12:31:58.777Z,43.61
2022-12-14T12:34:29.272Z,43.64
2022-12-14T12:37:25.315Z,43.46
2022-12-14T12:39:49.878Z,43.66
2022-12-14T12:42:24.343Z,43.61
2022-12-14T12:44:55.829Z,43.73
2022-12-14T12:47:37.008Z,43.67
2022-12-14T12:50:15.566Z,43.76
2022-12-14T12:52:50.140Z,43.58
2022-12-14T12:55:18.352Z,43.67
2022-12-14T12:57:49.865Z,43.56
2022-12-14T13:00:18.997Z,43.82
2022-12-14T13:02:50.421Z,43.77
2022-12-14T13:08:10.005Z,43.86
2022-12-14T13:10:55.768Z,43.93
2022-12-14T13:13:32.190Z,43.79
2022-12-14T13:16:07.050Z,43.74
2022-12-14T13:21:30.890Z,43.58
2022-12-14T13:23:58.920Z,43.74
2022-12-14T13:26:57.804Z,43.80
2022-12-14T13:29:36.199Z,43.98
2022-12-14T13:32:09.241Z,43.77
2022-12-14T13:34:41.370Z,43.97
2022-12-14T13:37:15.131Z,43.75
2022-12-14T13:39:50.753Z,43.90
2022-12-14T13:42:23.651Z,43.75
2022-12-14T13:44:57.770Z,44.02
2022-12-14T13:47:29.519Z,44.04
2022-12-14T13:50:39.826Z,43.99
2022-12-14T13:52:48.443Z,44.05
2022-12-14T13:55:22.971Z,43.93
2022-12-14T13:57:50.907Z,44.10
2022-12-14T14:00:39.809Z,43.98
2022-12-14T14:03:29.996Z,44.14
2022-12-14T14:06:01.671Z,44.14
2022-12-14T14:08:36.094Z,44.03
2022-12-14T14:11:40.412Z,44.31
2022-12-14T14:14:15.846Z,43.92
2022-12-14T14:16:46.062Z,44.03
2022-12-14T14:19:20.791Z,44.28
2022-12-14T14:24:56.334Z,44.15
2022-12-14T14:27:25.492Z,44.30
2022-12-14T14:29:53.643Z,44.08
2022-12-14T14:32:33.219Z,44.38
2022-12-14T14:35:01.731Z,44.06
2022-12-14T14:37:32.670Z,44.27
2022-12-14T14:40:16.715Z,43.89
2022-12-14T14:42:50.170Z,44.23
2022-12-14T14:45:35.838Z,44.37
2022-12-14T14:48:11.176Z,44.23
2022-12-14T14:50:41.190Z,44.43
2022-12-14T14:53:26.305Z,44.10
2022-12-14T14:56:15.325Z,44.33
2022-12-14T14:58:43.573Z,44.36
2022-12-14T15:01:19.759Z,44.34
2022-12-14T15:03:52.792Z,44.18
2022-12-14T15:06:23.163Z,44.46
2022-12-14T15:08:56.729Z,44.30
2022-12-14T15:11:26.143Z,44.50
2022-12-14T15:13:55.266Z,44.47
2022-12-14T15:16:24.035Z,44.53
2022-12-14T15:18:51.667Z,44.25
2022-12-14T15:21:20.279Z,44.41
2022-12-14T15:23:49.457Z,44.51
2022-12-14T15:26:20.737Z,44.39
2022-12-14T15:28:49.774Z,44.43
2022-12-14T15:31:17.717Z,44.58
2022-12-14T15:33:48.004Z,44.44
2022-12-14T15:36:17.150Z,44.53
2022-12-14T15:38:52.528Z,44.50
2022-12-14T15:41:23.216Z,44.38
2022-12-14T15:43:55.105Z,44.60
2022-12-14T15:46:28.492Z,44.50
2022-12-14T15:48:56.772Z,44.64
2022-12-14T15:51:26.351Z,44.52
2022-12-14T15:53:54.865Z,44.27
2022-12-14T15:56:27.362Z,44.49
2022-12-14T15:58:56.533Z,44.64
2022-12-14T16:01:25.898Z,44.65
2022-12-14T16:03:55.142Z,44.26
2022-12-14T16:06:23.679Z,44.48
2022-12-14T16:08:55.959Z,44.79
2022-12-14T16:11:27.559Z,44.43
2022-12-14T16:13:58.300Z,44.76
2022-12-14T16:16:26.297Z,44.60
2022-12-14T16:18:54.263Z,44.69
2022-12-14T16:21:30.345Z,44.83
2022-12-14T16:23:58.220Z,44.45
2022-12-14T16:26:29.816Z,44.46
2022-12-14T16:29:07.542Z,44.79
2022-12-14T16:31:35.418Z,44.67
2022-12-14T16:34:08.302Z,44.61
2022-12-14T16:36:37.007Z,44.60
2022-12-14T16:39:06.479Z,44.75
2022-12-14T16:41:36.933Z,44.56
2022-12-14T16:44:05.650Z,44.59
2022-12-14T16:46:33.299Z,44.64
2022-12-14T16:49:20.546Z,44.89
2022-12-14T16:52:12.419Z,44.69
2022-12-14T16:54:40.154Z,44.61
2022-12-14T16:57:18.730Z,44.67
2022-12-14T16:59:47.826Z,44.75
2022-12-14T17:02:24.891Z,44.83
2022-12-14T17:04:53.032Z,44.79
2022-12-14T17:07:23.941Z,44.73
2022-12-14T17:09:51.622Z,44.71
2022-12-14T17:12:21.117Z,44.85
2022-12-14T17:14:50.269Z,44.54
2022-12-14T17:17:21.535Z,44.82
2022-12-14T17:19:49.483Z,44.84
2022-12-14T17:22:18.801Z,44.90
2022-12-14T17:24:47.778Z,44.69
2022-12-14T17:27:16.575Z,44.72
2022-12-14T17:29:45.892Z,44.61
2022-12-14T17:32:14.265Z,44.98
2022-12-14T17:35:00.796Z,44.77
2022-12-14T17:37:34.110Z,44.61
2022-12-14T17:40:03.575Z,44.80
2022-12-14T17:42:31.634Z,44.81
2022-12-14T17:45:01.269Z,44.88
2022-12-14T17:47:28.861Z,44.92
2022-12-14T17:49:56.593Z,44.89
2022-12-14T17:52:25.668Z,44.79
2022-12-14T17:54:53.403Z,44.82
2022-12-14T17:57:21.942Z,44.80
2022-12-14T18:00:10.256Z,44.79
2022-12-14T18:02:40.053Z,44.77
2022-12-14T18:05:08.298Z,45.06
2022-12-14T18:07:36.042Z,44.90
2022-12-14T18:10:03.834Z,44.76
2022-12-14T18:12:31.531Z,44.89
2022-12-14T18:14:59.116Z,44.94
2022-12-14T18:17:26.944Z,44.95
2022-12-14T18:19:55.878Z,45.12
2022-12-14T18:22:23.476Z,44.90
2022-12-14T18:24:51.246Z,45.00
2022-12-14T18:27:18.850Z,44.89
2022-12-14T18:29:46.450Z,44.80
2022-12-14T18:32:14.866Z,45.01
2022-12-14T18:34:42.729Z,44.81
2022-12-14T18:37:12.009Z,44.81
2022-12-14T18:39:39.781Z,44.86
2022-12-14T18:42:07.446Z,44.96
2022-12-14T18:44:35.401Z,44.83
2022-12-14T18:47:33.103Z,44.68
2022-12-14T18:49:51.441Z,44.71
2022-12-14T18:52:20.449Z,44.82
2022-12-14T18:54:48.196Z,45.10
2022-12-14T18:57:15.893Z,44.91
2022-12-14T18:59:43.827Z,44.84
2022-12-14T19:02:14.679Z,44.81
2022-12-14T19:04:42.431Z,44.67
2022-12-14T19:07:10.252Z,44.97
2022-12-14T19:09:39.428Z,44.99
2022-12-14T19:12:07.460Z,44.69
2022-12-14T19:14:35.495Z,44.91
2022-12-14T19:17:03.294Z,44.90
2022-12-14T19:19:38.176Z,44.92
2022-12-14T19:22:09.219Z,44.87
2022-12-14T19:24:36.922Z,44.96
2022-12-14T19:27:06.667Z,44.95
2022-12-14T19:29:38.344Z,44.94
2022-12-14T19:32:10.133Z,45.00
2022-12-14T19:34:38.518Z,45.19
2022-12-14T19:37:06.636Z,45.21
2022-12-14T19:39:38.671Z,45.16
2022-12-14T19:42:09.294Z,45.00
2022-12-14T19:44:37.195Z,44.89
2022-12-14T19:47:04.909Z,45.16
2022-12-14T19:49:32.578Z,45.01
2022-12-14T19:52:00.181Z,44.76
2022-12-14T19:54:28.392Z,45.07
2022-12-14T19:56:56.048Z,45.02
2022-12-14T19:59:25.303Z,45.22
2022-12-14T20:01:52.998Z,45.10
2022-12-14T20:04:20.810Z,44.98
2022-12-14T20:06:48.634Z,45.10
2022-12-14T20:09:17.309Z,45.05
2022-12-14T20:11:45.540Z,44.95
2022-12-14T20:14:13.694Z,45.00
2022-12-14T20:16:42.715Z,44.86
2022-12-14T20:19:12.940Z,44.78
2022-12-14T20:21:40.792Z,45.04
2022-12-14T20:24:08.624Z,45.03
2022-12-14T20:26:36.485Z,45.17
2022-12-14T20:29:05.951Z,45.03
2022-12-14T20:31:33.831Z,45.01
2022-12-14T20:34:03.381Z,45.03
2022-12-14T20:36:31.065Z,45.03
2022-12-14T20:39:01.240Z,45.03
2022-12-14T20:41:29.749Z,45.05
2022-12-14T20:43:57.531Z,44.84
2022-12-14T20:46:26.790Z,44.93
2022-12-14T20:48:54.991Z,45.01
2022-12-14T20:51:24.322Z,44.85
2022-12-14T20:53:51.936Z,44.71
2022-12-14T20:56:21.244Z,45.11
2022-12-14T20:58:49.598Z,44.68
2022-12-14T21:01:17.938Z,44.86
2022-12-14T21:03:46.773Z,44.66
2022-12-14T21:06:14.609Z,44.93
2022-12-14T21:09:01.155Z,44.80
2022-12-14T21:11:46.470Z,44.98
2022-12-14T21:14:14.571Z,45.00
2022-12-14T21:16:42.650Z,45.05
2022-12-14T21:19:11.254Z,45.11
2022-12-14T21:21:39.532Z,44.92
2022-12-14T21:24:10.830Z,45.10
2022-12-14T21:26:39.818Z,44.76
2022-12-14T21:29:07.775Z,44.82
2022-12-14T21:31:35.849Z,44.84
2022-12-14T21:34:03.560Z,44.58
2022-12-14T21:36:31.210Z,44.70
2022-12-14T21:38:59.397Z,44.71
2022-12-14T21:41:45.668Z,44.71
2022-12-14T21:44:13.364Z,44.98
2022-12-14T21:46:41.043Z,44.71
2022-12-14T21:49:08.918Z,44.77
2022-12-14T21:51:37.117Z,44.93
2022-12-14T21:54:05.587Z,44.68
2022-12-14T21:56:52.491Z,44.70
2022-12-14T21:59:23.948Z,44.59
2022-12-14T22:01:52.012Z,44.77
2022-12-14T22:04:19.897Z,44.74
2022-12-14T22:06:47.595Z,44.89
2022-12-14T22:09:15.215Z,44.72
2022-12-14T22:11:44.323Z,44.51
2022-12-14T22:14:12.930Z,44.79
2022-12-14T22:16:41.369Z,44.64
2022-12-14T22:19:11.580Z,44.83
2022-12-14T22:21:39.398Z,44.54
2022-12-14T22:24:07.781Z,44.67
2022-12-14T22:26:35.411Z,44.57
2022-12-14T22:29:04.457Z,44.57
2022-12-14T22:31:32.178Z,44.55
2022-12-14T22:34:00.172Z,44.58
2022-12-14T22:36:28.099Z,44.62
2022-12-14T22:38:56.352Z,44.50
2022-12-14T22:41:24.376Z,44.61
2022-12-14T22:43:54.596Z,44.49
2022-12-14T22:46:24.394Z,44.60
2022-12-14T22:48:52.071Z,44.61
2022-12-14T22:51:20.337Z,44.56
2022-12-14T22:53:49.499Z,44.44
2022-12-14T22:56:19.716Z,44.51
2022-12-14T22:58:49.565Z,44.38
2022-12-14T23:01:19.342Z,44.44
2022-12-14T23:03:48.600Z,44.45
2022-12-14T23:06:19.228Z,44.49
2022-12-14T23:09:05.845Z,44.30
2022-12-14T23:11:51.731Z,44.40
2022-12-14T23:14:37.531Z,44.38
2022-12-14T23:17:23.529Z,44.69
2022-12-14T23:20:10.169Z,44.30
2022-12-14T23:22:55.809Z,44.64
2022-12-14T23:25:41.124Z,44.72
2022-12-14T23:28:26.404Z,44.71
2022-12-14T23:31:11.414Z,44.46
2022-12-14T23:33:56.806Z,44.50
2022-12-14T23:36:43.689Z,44.72
2022-12-14T23:39:29.011Z,44.36
2022-12-14T23:42:14.332Z,44.64
2022-12-14T23:44:59.633Z,44.52
2022-12-14T23:47:45.056Z,44.62
2022-12-14T23:50:34.793Z,44.74
2022-12-14T23:53:23.918Z,44.53
2022-12-14T23:56:08.909Z,44.48
2022-12-14T23:58:54.073Z,44.50
